Time;durP1;ratioP1;P1;durP2;ratioP2;P2;SDS_P1;SDS_P2;PMS_P1;PMS_P2;Temp;Humidity;BMP_temperature;BMP_pressure;BME280_temperature;BME280_humidity;BME280_pressure;Samples;Min_cycle;Max_cycle;Signal;HPM_P1;HPM_P2
2021/06/21 16:45:08;;;;;;;33.53;7.18;;;27.90;90.00;;;;;;5055628;28;20386;-96
2021/06/21 16:47:34;;;;;;;34.30;7.20;;;27.90;90.30;;;;;;5055089;28;20029;-93
2021/06/21 16:50:04;;;;;;;42.38;8.50;;;27.90;90.60;;;;;;5054361;28;20033;-89
2021/06/21 16:52:29;;;;;;;40.85;8.05;;;27.90;90.90;;;;;;5053959;28;20103;-90
2021/06/21 16:54:55;;;;;;;248.40;22.42;;;27.90;90.90;;;;;;5053894;28;20055;-88
2021/06/21 16:57:21;;;;;;;39.13;8.43;;;27.90;91.00;;;;;;5055120;28;20526;-91
2021/06/21 17:33:21;;;;;;;53.00;9.13;;;27.40;91.80;;;;;;5128366;27;20695;-80
2021/06/21 17:35:47;;;;;;;57.65;10.05;;;27.30;92.10;;;;;;5111447;28;20024;-79
2021/06/21 17:38:12;;;;;;;64.32;11.20;;;27.30;92.90;;;;;;5111592;28;20024;-85
2021/06/21 17:40:38;;;;;;;55.00;11.32;;;27.20;93.00;;;;;;5110253;28;20020;-86
2021/06/21 17:58:41;;;;;;;92.25;35.20;;;26.90;93.50;;;;;;5128334;27;20361;-83
2021/06/21 18:01:07;;;;;;;65.93;16.88;;;26.90;93.20;;;;;;5111431;28;20032;-82
2021/06/21 18:03:32;;;;;;;46.45;11.63;;;26.80;93.60;;;;;;5110421;28;20102;-88
2021/06/21 18:05:58;;;;;;;56.08;11.27;;;26.80;93.90;;;;;;5110289;28;20027;-87
2021/06/21 18:08:25;;;;;;;50.92;9.98;;;26.70;94.00;;;;;;5127144;28;20026;-84
2021/06/21 18:10:54;;;;;;;60.35;10.65;;;26.70;94.20;;;;;;5110927;28;20051;-81
2021/06/21 18:13:21;;;;;;;68.50;11.80;;;26.70;94.30;;;;;;5110889;28;20020;-85
2021/06/21 18:15:48;;;;;;;54.50;9.65;;;26.70;94.10;;;;;;5109814;28;20031;-84
2021/06/21 18:18:14;;;;;;;43.15;9.73;;;26.70;94.20;;;;;;5109825;28;20423;-84
2021/06/21 18:20:42;;;;;;;59.95;11.10;;;26.70;94.20;;;;;;5109653;28;20023;-84
2021/06/21 18:23:09;;;;;;;58.15;9.55;;;26.70;94.10;;;;;;5109612;28;20032;-84
2021/06/21 18:25:37;;;;;;;67.40;11.70;;;26.70;94.00;;;;;;5109671;28;20410;-80
2021/06/21 18:28:03;;;;;;;65.22;10.70;;;26.70;93.90;;;;;;5110607;28;20483;-87
2021/06/21 18:30:31;;;;;;;71.63;10.65;;;26.70;93.80;;;;;;5126273;28;20111;-87
2021/06/21 18:33:02;;;;;;;58.83;11.93;;;26.70;93.80;;;;;;5110956;28;20123;-86
2021/06/21 18:35:28;;;;;;;64.00;11.05;;;26.70;93.70;;;;;;5110201;28;20465;-84
2021/06/21 18:37:54;;;;;;;71.53;10.80;;;26.70;93.50;;;;;;5110731;28;20110;-85
2021/06/21 18:40:20;;;;;;;60.42;10.38;;;26.70;93.70;;;;;;5126639;28;20024;-85
2021/06/21 18:42:46;;;;;;;63.20;11.52;;;26.70;93.80;;;;;;5110498;28;20073;-86
2021/06/21 18:45:14;;;;;;;57.70;10.20;;;26.70;93.90;;;;;;5110568;28;20016;-86
2021/06/21 18:47:41;;;;;;;54.88;9.00;;;26.60;94.00;;;;;;5109197;28;20028;-83
2021/06/21 18:50:09;;;;;;;51.83;13.70;;;26.60;94.10;;;;;;5110318;28;20020;-84
2021/06/21 18:52:35;;;;;;;67.47;12.23;;;26.60;94.50;;;;;;5103275;28;20054;-83
2021/06/21 18:55:07;;;;;;;56.55;10.55;;;26.50;94.30;;;;;;5088782;28;20020;-85
2021/06/21 18:57:35;;;;;;;54.17;9.07;;;26.50;94.40;;;;;;5088382;28;20131;-83
2021/06/21 19:00:04;;;;;;;66.68;9.98;;;26.40;94.40;;;;;;5088703;28;20086;-87
2021/06/21 19:02:30;;;;;;;58.92;11.15;;;26.40;94.50;;;;;;5090035;28;20020;-83
2021/06/21 19:04:56;;;;;;;46.80;9.18;;;26.40;94.70;;;;;;5089869;28;20040;-84
2021/06/21 19:07:21;;;;;;;47.40;9.75;;;26.30;94.80;;;;;;5089768;28;20067;-89
2021/06/21 19:09:47;;;;;;;44.38;10.38;;;26.30;94.90;;;;;;5076640;28;20021;-85
2021/06/21 19:12:12;;;;;;;47.42;9.60;;;26.30;95.10;;;;;;5076976;28;20025;-86
2021/06/21 19:14:42;;;;;;;47.80;8.85;;;26.20;95.20;;;;;;5077272;28;20452;-87
2021/06/21 19:17:08;;;;;;;55.42;10.38;;;26.20;95.50;;;;;;5079769;28;20125;-91
2021/06/21 19:19:34;;;;;;;60.92;9.88;;;26.10;95.80;;;;;;5096717;28;20020;-85
2021/06/21 19:22:00;;;;;;;55.67;10.65;;;26.10;95.90;;;;;;5095283;28;20076;-85
2021/06/21 19:24:26;;;;;;;62.03;9.95;;;26.10;96.00;;;;;;5095162;28;20020;-85
2021/06/21 19:26:52;;;;;;;36.88;8.68;;;26.10;96.20;;;;;;5095089;28;20035;-86
2021/06/21 19:29:18;;;;;;;53.08;10.20;;;26.00;96.30;;;;;;5096403;28;20028;-84
2021/06/21 19:31:44;;;;;;;62.03;10.93;;;26.00;96.40;;;;;;5096593;28;20028;-84
2021/06/21 19:34:09;;;;;;;47.03;10.15;;;26.00;96.60;;;;;;5096293;28;20100;-85
2021/06/21 19:36:35;;;;;;;56.65;9.90;;;25.90;96.70;;;;;;5096112;28;20060;-85
2021/06/21 19:39:01;;;;;;;59.42;10.02;;;25.90;96.90;;;;;;5094875;28;20110;-85
2021/06/21 19:41:27;;;;;;;39.35;9.55;;;25.90;97.00;;;;;;5079929;28;20028;-85
2021/06/21 19:43:52;;;;;;;45.90;9.43;;;25.90;97.10;;;;;;5093514;28;20460;-84
2021/06/21 19:46:18;;;;;;;48.88;8.77;;;25.80;97.30;;;;;;5094970;28;20024;-85
2021/06/21 19:48:44;;;;;;;52.85;9.52;;;25.80;97.20;;;;;;5095674;28;20119;-94
2021/06/21 19:51:09;;;;;;;41.38;9.68;;;25.80;97.40;;;;;;5095633;28;20024;-94
2021/06/21 19:53:35;;;;;;;46.05;9.00;;;25.80;97.50;;;;;;5095902;28;20426;-93
2021/06/21 19:56:01;;;;;;;42.25;9.85;;;25.70;97.60;;;;;;5095693;28;20470;-93
2021/06/21 19:58:30;;;;;;;38.25;9.07;;;25.70;97.60;;;;;;5095284;28;20517;-96
2021/06/21 20:00:57;;;;;;;59.67;12.50;;;25.60;97.60;;;;;;5095702;28;20119;-89
2021/06/21 20:03:23;;;;;;;52.58;10.15;;;25.60;97.80;;;;;;5095368;28;20024;-89
2021/06/21 20:05:52;;;;;;;56.78;11.15;;;25.50;97.90;;;;;;5111918;28;20397;-89
2021/06/21 20:08:19;;;;;;;54.10;10.60;;;25.50;98.10;;;;;;5094958;28;20031;-89
2021/06/21 20:10:46;;;;;;;53.15;10.52;;;25.40;98.10;;;;;;5094976;28;20119;-89
2021/06/21 20:13:12;;;;;;;56.63;9.75;;;25.40;98.20;;;;;;5096002;28;20512;-89
2021/06/21 20:15:38;;;;;;;47.88;10.88;;;25.40;98.30;;;;;;5094847;28;20371;-89
2021/06/21 20:18:04;;;;;;;71.40;11.85;;;25.40;98.40;;;;;;5095506;28;20030;-95
2021/06/21 20:20:30;;;;;;;55.10;11.75;;;25.40;98.40;;;;;;5094097;28;20431;-95
2021/06/21 20:22:56;;;;;;;79.78;13.60;;;25.30;98.40;;;;;;5094877;28;20039;-87
2021/06/21 20:25:21;;;;;;;55.75;10.15;;;25.30;98.40;;;;;;5111116;28;20066;-88
2021/06/21 20:27:47;;;;;;;67.38;10.95;;;25.30;98.40;;;;;;5094389;28;20024;-88
2021/06/21 20:30:15;;;;;;;70.90;12.55;;;25.30;98.50;;;;;;5094182;28;20028;-87
2021/06/21 20:32:45;;;;;;;73.00;11.55;;;25.20;98.50;;;;;;5095632;28;20016;-90
2021/06/21 20:35:12;;;;;;;;;;;25.20;98.70;;;;;;5094970;28;20032;-89
2021/06/21 20:37:44;;;;;;;65.05;10.70;;;25.20;98.90;;;;;;5083130;28;19908;-90
2021/06/21 20:40:11;;;;;;;84.68;12.65;;;25.20;98.70;;;;;;5074631;28;20025;-89
2021/06/21 20:42:37;;;;;;;63.03;10.75;;;25.20;98.80;;;;;;5073985;28;20031;-89
2021/06/21 20:45:05;;;;;;;73.60;12.10;;;25.20;98.80;;;;;;5074133;28;20024;-90
2021/06/21 20:47:31;;;;;;;70.95;12.40;;;25.20;98.70;;;;;;5074028;28;20020;-89
2021/06/21 20:49:57;;;;;;;48.40;10.02;;;25.20;98.70;;;;;;5075184;28;20021;-89
2021/06/21 20:52:23;;;;;;;60.95;10.90;;;25.20;98.70;;;;;;5074464;28;20051;-89
2021/06/21 20:54:51;;;;;;;50.85;10.18;;;25.20;98.80;;;;;;5073954;28;20029;-90
2021/06/21 20:57:18;;;;;;;51.13;9.57;;;25.20;98.70;;;;;;5073390;28;20517;-89
2021/06/21 20:59:44;;;;;;;48.15;9.98;;;25.20;98.70;;;;;;5073987;28;20032;-90
2021/06/21 21:02:11;;;;;;;64.25;11.77;;;25.10;98.70;;;;;;5073898;28;20032;-90
2021/06/21 21:04:39;;;;;;;62.40;11.20;;;25.10;98.60;;;;;;5073850;28;20021;-90
2021/06/21 21:07:08;;;;;;;52.10;9.77;;;25.20;99.00;;;;;;5074221;28;20086;-89
2021/06/21 21:09:34;;;;;;;49.80;10.00;;;25.10;98.60;;;;;;5073858;28;20397;-89
2021/06/21 21:11:59;;;;;;;66.43;10.50;;;25.10;98.70;;;;;;5074747;28;20107;-89
2021/06/21 21:14:25;;;;;;;62.10;10.75;;;25.00;98.60;;;;;;5087298;28;20032;-90
2021/06/21 21:16:51;;;;;;;67.32;10.48;;;25.00;98.60;;;;;;5093884;28;20024;-90
2021/06/21 21:19:17;;;;;;;66.60;11.30;;;25.00;98.60;;;;;;5093885;28;20051;-90
2021/06/21 21:21:47;;;;;;;63.72;11.60;;;25.00;98.60;;;;;;5094084;28;20058;-90
2021/06/21 21:24:14;;;;;;;66.40;10.20;;;24.90;98.50;;;;;;5094194;28;20016;-91
2021/06/21 21:26:40;;;;;;;48.97;10.05;;;25.00;98.50;;;;;;5094312;28;20024;-89
2021/06/21 21:29:06;;;;;;;55.90;10.05;;;24.90;98.50;;;;;;5093757;28;20415;-90
2021/06/21 21:31:32;;;;;;;53.45;10.27;;;24.90;98.60;;;;;;5093425;28;20020;-91
2021/06/21 21:33:58;;;;;;;59.40;10.88;;;24.90;98.60;;;;;;5091579;28;20016;-90
2021/06/21 21:36:23;;;;;;;60.72;10.55;;;24.90;98.60;;;;;;5073370;28;20028;-91
2021/06/21 21:38:49;;;;;;;44.13;9.73;;;24.90;98.50;;;;;;5073372;28;20032;-90
2021/06/21 21:41:15;;;;;;;39.53;7.93;;;24.80;98.50;;;;;;5073392;28;20032;-91
2021/06/21 21:43:40;;;;;;;44.13;8.60;;;24.80;98.40;;;;;;5073418;28;20048;-90
2021/06/21 21:46:06;;;;;;;36.92;7.40;;;24.80;98.30;;;;;;5073226;28;20048;-90
2021/06/21 21:48:32;;;;;;;41.47;8.27;;;24.80;98.30;;;;;;5073333;28;20024;-90
2021/06/21 21:50:58;;;;;;;40.55;8.25;;;24.80;98.20;;;;;;5073377;28;20386;-90
2021/06/21 21:53:24;;;;;;;37.47;8.32;;;24.70;98.10;;;;;;5073955;28;20025;-91
2021/06/21 21:55:49;;;;;;;38.28;7.60;;;24.70;98.10;;;;;;5073240;28;20085;-90
2021/06/21 21:58:15;;;;;;;47.53;8.13;;;24.60;98.00;;;;;;5072929;28;20056;-90
2021/06/21 22:00:43;;;;;;;33.55;6.72;;;24.60;97.90;;;;;;5074261;28;20379;-90
2021/06/21 22:03:11;;;;;;;24.02;5.95;;;24.70;98.00;;;;;;5074347;28;20028;-90
2021/06/21 22:05:38;;;;;;;28.10;6.50;;;24.60;98.00;;;;;;5073270;28;20140;-89
2021/06/21 22:08:04;;;;;;;21.00;5.97;;;24.60;98.00;;;;;;5073023;28;20159;-90
2021/06/21 22:10:30;;;;;;;26.40;5.97;;;24.60;97.90;;;;;;5073042;28;20036;-90
2021/06/21 22:12:56;;;;;;;25.92;5.93;;;24.50;97.90;;;;;;5077328;28;20021;-90
2021/06/21 22:15:22;;;;;;;34.35;6.85;;;24.50;98.00;;;;;;5093220;28;20047;-90
2021/06/21 22:17:48;;;;;;;31.77;6.15;;;24.50;98.00;;;;;;5093191;28;20085;-90
2021/06/21 22:20:19;;;;;;;29.17;6.20;;;24.50;98.00;;;;;;5093143;28;20115;-90
2021/06/21 22:22:45;;;;;;;19.73;4.75;;;24.40;97.90;;;;;;5093289;28;20401;-90
2021/06/21 22:25:13;;;;;;;21.38;4.93;;;24.40;98.00;;;;;;5093214;28;20024;-89
2021/06/21 22:27:39;;;;;;;14.32;4.45;;;24.40;98.00;;;;;;5092956;28;20035;-90
2021/06/21 22:30:08;;;;;;;13.05;4.03;;;24.30;97.80;;;;;;5092971;28;20024;-90
2021/06/21 22:32:33;;;;;;;14.27;4.03;;;24.30;97.80;;;;;;5092653;28;20039;-90
2021/06/21 22:34:59;;;;;;;13.73;4.50;;;24.30;97.80;;;;;;5094107;28;20028;-90
2021/06/21 22:37:25;;;;;;;13.30;4.13;;;24.30;97.70;;;;;;5092931;28;20542;-90
2021/06/21 22:39:51;;;;;;;14.23;3.85;;;24.30;97.70;;;;;;5093069;28;20073;-90
2021/06/21 22:42:17;;;;;;;12.68;3.85;;;24.20;97.70;;;;;;5082564;28;20363;-90
2021/06/21 22:44:43;;;;;;;16.45;4.07;;;24.20;97.80;;;;;;5075104;28;20053;-90
2021/06/21 22:47:08;;;;;;;16.77;4.47;;;24.30;97.70;;;;;;5076646;28;20036;-93
2021/06/21 22:49:34;;;;;;;16.83;4.28;;;24.30;97.70;;;;;;5076500;28;20164;-91
2021/06/21 22:52:02;;;;;;;13.23;4.20;;;24.30;97.80;;;;;;5076518;28;20119;-90
2021/06/21 22:54:28;;;;;;;17.55;5.13;;;24.30;97.80;;;;;;5076443;28;20021;-91
2021/06/21 22:56:54;;;;;;;11.65;4.00;;;24.30;97.80;;;;;;5077120;28;20059;-90
2021/06/21 22:59:21;;;;;;;12.88;4.47;;;24.30;98.10;;;;;;5076639;28;20454;-90
2021/06/21 23:01:49;;;;;;;21.83;4.30;;;24.30;97.80;;;;;;5076349;28;20028;-90
2021/06/21 23:04:15;;;;;;;11.23;3.95;;;24.30;97.80;;;;;;5076052;28;20434;-90
2021/06/21 23:06:41;;;;;;;7.35;3.53;;;24.20;97.70;;;;;;5076349;28;20050;-90
2021/06/21 23:09:08;;;;;;;10.93;3.70;;;24.20;97.60;;;;;;5076130;28;20021;-90
2021/06/21 23:11:35;;;;;;;8.68;3.50;;;24.20;97.60;;;;;;5076758;28;20029;-90
2021/06/21 23:14:01;;;;;;;12.57;4.53;;;24.10;97.60;;;;;;5093030;28;20028;-90
2021/06/21 23:16:27;;;;;;;11.10;3.80;;;24.10;97.70;;;;;;5076009;28;20024;-90
2021/06/21 23:18:53;;;;;;;11.02;3.80;;;24.00;97.60;;;;;;5075956;28;20044;-90
2021/06/21 23:21:19;;;;;;;15.55;3.90;;;24.10;97.60;;;;;;5075856;28;20463;-90
2021/06/21 23:23:45;;;;;;;11.18;4.28;;;24.00;97.60;;;;;;5076035;28;20052;-90
2021/06/21 23:26:10;;;;;;;11.68;3.92;;;24.00;97.50;;;;;;5076817;28;20067;-90
2021/06/21 23:28:36;;;;;;;15.40;4.00;;;24.00;97.50;;;;;;5075869;28;20078;-90
2021/06/21 23:31:02;;;;;;;9.00;3.40;;;24.00;97.40;;;;;;5075985;28;20031;-91
2021/06/21 23:33:28;;;;;;;12.73;3.97;;;23.90;97.40;;;;;;5075694;28;20050;-91
2021/06/21 23:35:54;;;;;;;12.32;4.32;;;23.90;97.40;;;;;;5095051;28;20028;-91
2021/06/21 23:38:21;;;;;;;12.20;3.88;;;23.90;97.40;;;;;;5096917;28;20034;-91
2021/06/21 23:40:47;;;;;;;10.35;3.90;;;23.90;97.50;;;;;;5095947;28;20024;-90
2021/06/21 23:43:14;;;;;;;13.43;4.03;;;23.90;97.60;;;;;;5077092;28;20020;-91
2021/06/21 23:45:40;;;;;;;16.90;3.97;;;23.90;97.50;;;;;;5075452;28;20029;-93
2021/06/21 23:48:06;;;;;;;16.77;4.25;;;23.90;97.40;;;;;;5075427;28;20032;-91
2021/06/21 23:50:32;;;;;;;16.60;3.88;;;23.90;97.30;;;;;;5075345;28;20036;-93
2021/06/21 23:52:58;;;;;;;23.58;4.75;;;23.90;97.20;;;;;;5076368;28;20035;-91
2021/06/21 23:55:23;;;;;;;10.38;3.75;;;23.90;97.10;;;;;;5075280;28;20067;-91
2021/06/21 23:57:51;;;;;;;12.82;3.60;;;23.90;96.90;;;;;;5074841;28;20048;-89
